Time;durP1;ratioP1;P1;durP2;ratioP2;P2;SDS_P1;SDS_P2;PMS_P1;PMS_P2;Temp;Humidity;BMP_temperature;BMP_pressure;BME280_temperature;BME280_humidity;BME280_pressure;Samples;Min_cycle;Max_cycle;Signal;HPM_P1;HPM_P2
2020/12/01 00:02:17;;;;;;;4.23;3.37;;;21.20;52.50;;;;;;5033103;28;20168;-71
2020/12/01 00:04:43;;;;;;;4.63;3.13;;;21.20;52.50;;;;;;5033401;28;20227;-70
2020/12/01 00:07:09;;;;;;;5.20;3.07;;;21.20;52.50;;;;;;5033290;28;20530;-71
2020/12/01 00:09:34;;;;;;;5.03;3.67;;;21.20;52.50;;;;;;5033021;28;20425;-70
2020/12/01 00:12:00;;;;;;;4.97;3.53;;;21.20;52.50;;;;;;5033259;28;20190;-71
2020/12/01 00:14:26;;;;;;;4.03;3.20;;;21.20;52.50;;;;;;5032821;28;20242;-70
2020/12/01 00:16:51;;;;;;;4.27;3.17;;;21.20;52.50;;;;;;5032988;28;20601;-71
2020/12/01 00:19:17;;;;;;;4.53;3.60;;;21.20;52.50;;;;;;5032939;28;20259;-71
2020/12/01 00:21:46;;;;;;;3.90;3.33;;;21.20;52.50;;;;;;5032950;28;20538;-70
2020/12/01 00:24:11;;;;;;;3.90;2.90;;;21.20;52.50;;;;;;5033362;28;20198;-71
2020/12/01 00:26:37;;;;;;;5.10;3.30;;;21.20;52.50;;;;;;5033329;28;20518;-71
2020/12/01 00:29:04;;;;;;;4.00;3.60;;;21.20;52.50;;;;;;5032856;28;20176;-70
2020/12/01 00:31:30;;;;;;;4.37;3.20;;;21.20;52.50;;;;;;5032813;28;20171;-70
2020/12/01 00:33:55;;;;;;;4.17;2.90;;;21.20;52.50;;;;;;5032704;28;20450;-71
2020/12/01 00:36:27;;;;;;;3.30;3.00;;;21.20;52.50;;;;;;5032683;28;20215;-70
2020/12/01 00:38:53;;;;;;;3.37;2.60;;;21.20;52.50;;;;;;5032576;28;20180;-72
2020/12/01 00:41:19;;;;;;;3.40;2.80;;;21.20;52.50;;;;;;5015249;28;20429;-70
2020/12/01 00:43:44;;;;;;;3.50;3.20;;;21.20;52.50;;;;;;5015229;28;20425;-71
2020/12/01 00:46:10;;;;;;;3.03;2.73;;;21.20;52.50;;;;;;5032592;28;20564;-71
2020/12/01 00:48:35;;;;;;;3.00;2.53;;;21.20;52.50;;;;;;5014921;28;20655;-71
2020/12/01 00:51:01;;;;;;;4.37;3.20;;;21.20;52.50;;;;;;5032904;28;20179;-71
2020/12/01 00:53:26;;;;;;;4.33;3.47;;;21.20;52.50;;;;;;5032521;28;20168;-71
2020/12/01 00:55:52;;;;;;;4.07;3.00;;;21.20;52.50;;;;;;5032489;28;20199;-71
2020/12/01 00:58:18;;;;;;;5.50;3.27;;;21.20;52.50;;;;;;5032683;28;20635;-71
2020/12/01 01:00:45;;;;;;;3.63;3.00;;;21.20;52.50;;;;;;5033690;28;20191;-71
2020/12/01 01:03:11;;;;;;;4.10;3.40;;;21.20;52.50;;;;;;5036510;28;20406;-71
2020/12/01 01:05:37;;;;;;;3.30;2.90;;;21.20;52.50;;;;;;5036158;28;20438;-70
2020/12/01 01:08:03;;;;;;;3.70;3.40;;;21.20;52.50;;;;;;5036986;28;20501;-70
2020/12/01 01:10:31;;;;;;;3.50;2.70;;;21.20;52.50;;;;;;5035965;28;20666;-71
2020/12/01 01:12:58;;;;;;;3.57;3.10;;;21.20;52.50;;;;;;5036131;28;20418;-70
2020/12/01 01:15:26;;;;;;;4.23;3.10;;;21.20;52.50;;;;;;5036032;28;20466;-71
2020/12/01 01:17:51;;;;;;;3.80;2.87;;;21.20;52.50;;;;;;5036035;28;20414;-70
2020/12/01 01:20:17;;;;;;;2.70;2.50;;;21.20;52.50;;;;;;5036010;28;20917;-70
2020/12/01 01:22:42;;;;;;;3.23;2.93;;;21.20;52.50;;;;;;5036014;28;20172;-70
2020/12/01 01:25:08;;;;;;;3.90;2.77;;;21.20;52.50;;;;;;5035826;28;20280;-71
2020/12/01 01:27:34;;;;;;;3.10;2.70;;;21.20;52.50;;;;;;5035881;28;20243;-71
2020/12/01 01:29:59;;;;;;;3.07;2.77;;;21.20;52.50;;;;;;5036059;28;20603;-71
2020/12/01 01:32:26;;;;;;;3.30;2.67;;;21.20;52.50;;;;;;5035114;28;20192;-70
2020/12/01 01:34:51;;;;;;;3.03;2.50;;;21.20;52.50;;;;;;5037222;28;20621;-71
2020/12/01 01:37:17;;;;;;;3.37;2.70;;;21.20;52.50;;;;;;5035581;28;20430;-71
2020/12/01 01:39:42;;;;;;;3.47;2.90;;;21.20;52.50;;;;;;5035633;28;20168;-70
2020/12/01 01:42:09;;;;;;;2.90;2.50;;;21.20;52.50;;;;;;5035587;28;20178;-70
2020/12/01 01:44:35;;;;;;;4.80;2.50;;;21.20;52.50;;;;;;5035451;28;20250;-70
2020/12/01 01:47:15;;;;;;;3.33;2.90;;;21.20;52.50;;;;;;5035754;28;20410;-71
2020/12/01 01:49:42;;;;;;;3.07;2.70;;;21.20;52.50;;;;;;5034558;28;20167;-71
2020/12/01 01:52:38;;;;;;;4.80;2.80;;;21.20;52.50;;;;;;5033609;28;20450;-72
2020/12/01 01:55:25;;;;;;;5.27;3.17;;;21.20;52.50;;;;;;5017912;28;20855;-71
2020/12/01 01:57:58;;;;;;;4.00;3.10;;;21.10;52.40;;;;;;5034468;28;20435;-70
2020/12/01 02:01:01;;;;;;;3.00;2.67;;;21.10;52.50;;;;;;5035518;28;20718;-70
2020/12/01 02:03:43;;;;;;;2.90;2.50;;;21.10;52.50;;;;;;4994847;28;20440;-71
2020/12/01 02:06:27;;;;;;;3.83;2.87;;;21.10;52.50;;;;;;5035337;28;20840;-71
2020/12/01 02:09:18;;;;;;;5.53;2.87;;;21.10;52.50;;;;;;5035054;28;20416;-71
2020/12/01 02:11:45;;;;;;;3.10;2.57;;;21.10;52.50;;;;;;5023757;28;20794;-70
2020/12/01 02:14:16;;;;;;;3.10;2.80;;;21.10;52.50;;;;;;5034848;28;20457;-70
2020/12/01 02:16:46;;;;;;;3.90;3.13;;;21.10;52.50;;;;;;5035187;28;20414;-71
2020/12/01 02:19:15;;;;;;;3.10;2.47;;;21.10;52.50;;;;;;5034923;28;20415;-71
2020/12/01 02:21:41;;;;;;;3.30;3.00;;;21.10;52.50;;;;;;5034835;28;20407;-71
2020/12/01 02:24:12;;;;;;;2.60;2.33;;;21.10;52.50;;;;;;5035029;28;20920;-71
2020/12/01 02:26:38;;;;;;;2.97;2.53;;;21.10;52.50;;;;;;5035015;28;20410;-71
2020/12/01 02:29:07;;;;;;;4.90;2.63;;;21.10;52.50;;;;;;5034686;28;20415;-71
2020/12/01 02:31:33;;;;;;;3.00;2.70;;;21.10;52.50;;;;;;5034631;28;20206;-71
2020/12/01 02:33:59;;;;;;;2.60;2.40;;;21.10;52.50;;;;;;5034713;28;20581;-71
2020/12/01 02:36:25;;;;;;;2.80;2.30;;;21.10;52.50;;;;;;5016839;28;20229;-70
2020/12/01 02:38:50;;;;;;;2.80;2.50;;;21.10;52.50;;;;;;5034801;28;20184;-71
2020/12/01 02:41:16;;;;;;;2.80;2.47;;;21.10;52.50;;;;;;5034490;28;20243;-71
2020/12/01 02:43:41;;;;;;;3.27;2.67;;;21.10;52.50;;;;;;5034421;28;20180;-71
2020/12/01 02:46:07;;;;;;;3.33;2.70;;;21.10;52.50;;;;;;5034228;28;20207;-71
2020/12/01 02:48:33;;;;;;;2.60;2.40;;;21.10;52.50;;;;;;5034341;28;20167;-71
2020/12/01 02:50:58;;;;;;;3.00;2.20;;;21.10;52.50;;;;;;5034315;28;20519;-71
2020/12/01 02:53:24;;;;;;;4.37;3.00;;;21.10;52.50;;;;;;5034186;28;20171;-70
2020/12/01 02:55:49;;;;;;;3.03;2.27;;;21.10;52.50;;;;;;5034089;28;20274;-71
2020/12/01 02:58:15;;;;;;;3.60;2.67;;;21.10;52.50;;;;;;5034226;28;20591;-71
2020/12/01 03:00:43;;;;;;;2.63;2.40;;;21.10;52.50;;;;;;5034082;28;20259;-71
2020/12/01 03:03:09;;;;;;;3.73;3.33;;;21.10;52.50;;;;;;5033990;28;20419;-71
2020/12/01 03:05:35;;;;;;;3.20;2.90;;;21.10;52.50;;;;;;5033951;28;20441;-69
2020/12/01 03:08:00;;;;;;;2.63;2.40;;;21.10;52.50;;;;;;5033985;28;20765;-71
2020/12/01 03:10:26;;;;;;;4.50;2.57;;;21.10;52.50;;;;;;5033974;28;20225;-70
2020/12/01 03:12:51;;;;;;;2.63;2.17;;;21.10;52.50;;;;;;5033903;28;20172;-71
2020/12/01 03:15:18;;;;;;;3.87;2.50;;;21.10;52.50;;;;;;5033737;28;20780;-71
2020/12/01 03:17:44;;;;;;;2.97;2.60;;;21.10;52.50;;;;;;5016005;28;20249;-71
2020/12/01 03:20:09;;;;;;;2.87;2.30;;;21.10;52.50;;;;;;5033756;28;20438;-71
2020/12/01 03:22:35;;;;;;;2.43;2.10;;;21.10;52.50;;;;;;5033695;28;20175;-71
2020/12/01 03:25:00;;;;;;;3.20;2.40;;;21.10;52.50;;;;;;5033119;28;20200;-71
2020/12/01 03:27:26;;;;;;;2.73;2.30;;;21.10;52.50;;;;;;5033671;28;20206;-71
2020/12/01 03:29:51;;;;;;;3.07;2.57;;;21.00;52.40;;;;;;5033624;28;20168;-71
2020/12/01 03:32:17;;;;;;;3.07;2.43;;;21.10;52.50;;;;;;5033772;28;20175;-71
2020/12/01 03:34:43;;;;;;;2.40;2.20;;;21.10;52.50;;;;;;5033265;28;20211;-70
2020/12/01 03:37:08;;;;;;;3.33;2.40;;;21.10;52.50;;;;;;5033374;28;20646;-71
2020/12/01 03:39:34;;;;;;;3.37;2.97;;;21.10;52.50;;;;;;5033459;28;20183;-71
2020/12/01 03:41:59;;;;;;;2.50;2.13;;;21.00;52.40;;;;;;5033952;28;20218;-71
2020/12/01 03:44:29;;;;;;;2.73;2.20;;;21.10;52.50;;;;;;5033301;28;20215;-71
2020/12/01 03:46:56;;;;;;;2.90;2.37;;;21.10;52.50;;;;;;5033545;28;20230;-71
2020/12/01 03:49:21;;;;;;;2.53;2.33;;;21.10;52.50;;;;;;5033455;28;20476;-71
2020/12/01 03:51:47;;;;;;;3.87;2.87;;;21.10;52.50;;;;;;5033224;28;20414;-70
2020/12/01 03:54:12;;;;;;;2.77;2.03;;;21.10;52.50;;;;;;5033321;28;20192;-71
2020/12/01 03:56:38;;;;;;;2.83;2.30;;;21.10;52.50;;;;;;5033178;28;20179;-71
2020/12/01 03:59:04;;;;;;;3.30;2.70;;;21.00;52.50;;;;;;5032975;28;20175;-71
2020/12/01 04:01:29;;;;;;;2.53;2.30;;;21.00;52.40;;;;;;5033419;28;20179;-71
2020/12/01 04:03:55;;;;;;;2.27;2.07;;;21.00;52.40;;;;;;5033099;28;20653;-70
2020/12/01 04:06:20;;;;;;;3.60;2.30;;;21.10;52.50;;;;;;5032968;28;20191;-71
2020/12/01 04:08:46;;;;;;;2.00;1.80;;;21.00;52.50;;;;;;5033066;28;20643;-71
2020/12/01 04:11:12;;;;;;;2.50;2.13;;;21.00;52.40;;;;;;5033017;28;20207;-71
2020/12/01 04:13:37;;;;;;;2.40;1.90;;;21.10;52.50;;;;;;5033148;28;20182;-71
2020/12/01 04:16:03;;;;;;;2.77;2.50;;;21.10;52.60;;;;;;5033130;28;20265;-71
2020/12/01 04:18:28;;;;;;;2.60;2.17;;;21.00;52.50;;;;;;5033209;28;20171;-71
2020/12/01 04:20:54;;;;;;;3.70;2.50;;;21.00;52.40;;;;;;5032922;28;20198;-71
2020/12/01 04:23:20;;;;;;;3.30;2.43;;;21.00;52.40;;;;;;5032887;28;20706;-71
2020/12/01 04:25:45;;;;;;;2.47;2.20;;;21.00;52.50;;;;;;5033077;28;20579;-71
2020/12/01 04:28:11;;;;;;;3.00;2.50;;;21.00;52.40;;;;;;5032865;28;20175;-71
2020/12/01 04:30:36;;;;;;;3.53;2.57;;;21.10;52.50;;;;;;5032833;28;20178;-71
2020/12/01 04:33:02;;;;;;;4.10;2.30;;;21.10;52.50;;;;;;5032786;28;20176;-71
2020/12/01 04:35:28;;;;;;;3.10;2.40;;;21.00;52.40;;;;;;5034780;28;20294;-71
2020/12/01 04:37:58;;;;;;;2.23;1.93;;;21.00;52.50;;;;;;5036813;28;20167;-70
2020/12/01 04:40:26;;;;;;;2.83;2.40;;;21.00;52.50;;;;;;5036984;28;20414;-71
2020/12/01 04:42:57;;;;;;;2.00;1.80;;;21.00;53.00;;;;;;5036933;28;20475;-70
2020/12/01 04:45:23;;;;;;;2.53;2.30;;;21.00;52.50;;;;;;5036357;28;20430;-71
2020/12/01 04:48:15;;;;;;;2.80;2.30;;;21.00;52.50;;;;;;5036532;28;20417;-70
2020/12/01 04:50:46;;;;;;;2.63;2.43;;;21.00;52.50;;;;;;5036585;28;20163;-71
2020/12/01 04:53:14;;;;;;;2.57;2.37;;;21.00;52.50;;;;;;5036483;28;20414;-71
2020/12/01 04:56:08;;;;;;;2.43;2.23;;;21.00;52.60;;;;;;5036327;28;20481;-71
2020/12/01 04:59:03;;;;;;;2.00;1.80;;;21.00;52.50;;;;;;5036520;28;20863;-71
2020/12/01 05:01:51;;;;;;;2.33;2.13;;;21.00;52.60;;;;;;5036605;28;20390;-71
2020/12/01 05:04:33;;;;;;;3.13;2.13;;;20.90;52.50;;;;;;5036534;28;20391;-70
2020/12/01 05:07:19;;;;;;;2.67;2.20;;;20.90;52.60;;;;;;5017438;28;20420;-71
2020/12/01 05:09:51;;;;;;;2.20;1.90;;;20.90;53.20;;;;;;5036524;28;20869;-71
2020/12/01 05:12:48;;;;;;;2.73;2.07;;;20.90;52.60;;;;;;5036161;28;20801;-70
2020/12/01 05:15:21;;;;;;;2.63;2.40;;;20.90;53.20;;;;;;5035725;28;20469;-70
2020/12/01 05:18:17;;;;;;;3.00;2.03;;;20.90;52.70;;;;;;5036094;28;20790;-71
2020/12/01 05:20:52;;;;;;;2.73;2.20;;;20.90;52.70;;;;;;5036247;28;20406;-71
2020/12/01 05:23:45;;;;;;;2.80;1.87;;;20.90;52.90;;;;;;5036226;28;20398;-71
2020/12/01 05:26:19;;;;;;;2.10;1.90;;;20.80;52.70;;;;;;5035844;28;20442;-71
2020/12/01 05:28:54;;;;;;;1.90;1.70;;;20.80;52.80;;;;;;5036143;28;20387;-71
2020/12/01 05:31:23;;;;;;;2.80;2.30;;;20.80;52.80;;;;;;5035768;28;20496;-70
2020/12/01 05:34:17;;;;;;;2.73;2.50;;;20.80;52.80;;;;;;5035682;28;20904;-71
2020/12/01 05:36:43;;;;;;;1.90;1.60;;;20.80;52.70;;;;;;5035706;28;20422;-70
2020/12/01 05:39:14;;;;;;;2.70;2.30;;;20.80;52.80;;;;;;5035959;28;20408;-71
2020/12/01 05:41:42;;;;;;;2.87;2.10;;;20.80;52.70;;;;;;5035560;28;20584;-70
2020/12/01 05:44:23;;;;;;;2.53;2.33;;;20.80;52.80;;;;;;5035474;28;20403;-70
2020/12/01 05:46:54;;;;;;;2.03;1.90;;;20.90;52.80;;;;;;5035233;28;20394;-70
2020/12/01 05:49:52;;;;;;;2.20;2.00;;;20.80;52.70;;;;;;5035464;28;20413;-70
2020/12/01 05:52:41;;;;;;;2.43;2.10;;;20.90;52.70;;;;;;5035422;28;20756;-70
2020/12/01 05:55:17;;;;;;;2.50;2.00;;;20.90;52.70;;;;;;5035250;28;20465;-70
2020/12/01 05:57:54;;;;;;;2.50;2.30;;;20.90;52.80;;;;;;5017390;28;20418;-70
2020/12/01 06:00:24;;;;;;;2.27;1.83;;;20.90;52.70;;;;;;5035324;28;20390;-70
2020/12/01 06:03:17;;;;;;;3.43;2.30;;;20.90;52.70;;;;;;5034972;28;20995;-70
2020/12/01 06:05:47;;;;;;;2.40;2.17;;;20.90;52.60;;;;;;5034975;28;20449;-70
2020/12/01 06:08:28;;;;;;;2.60;2.10;;;20.80;52.60;;;;;;5035057;28;20402;-70
2020/12/01 06:11:20;;;;;;;2.63;2.20;;;20.90;52.70;;;;;;5035346;28;20405;-70
2020/12/01 06:13:47;;;;;;;2.70;1.93;;;20.90;52.60;;;;;;5035204;28;20426;-70
2020/12/01 06:16:31;;;;;;;3.00;2.43;;;20.90;52.70;;;;;;5034837;28;20442;-69
2020/12/01 06:19:08;;;;;;;2.93;2.23;;;20.90;52.70;;;;;;5035402;28;20394;-70
2020/12/01 06:21:48;;;;;;;2.07;1.87;;;20.90;52.60;;;;;;5035153;28;20399;-69
2020/12/01 06:24:23;;;;;;;3.20;2.10;;;20.90;52.70;;;;;;5035002;28;20819;-70
2020/12/01 06:27:35;;;;;;;2.43;2.07;;;20.90;52.70;;;;;;5034823;28;20982;-70
2020/12/01 06:30:34;;;;;;;2.20;1.97;;;20.90;52.60;;;;;;5034584;28;20425;-70
2020/12/01 06:33:35;;;;;;;2.33;1.90;;;20.90;52.70;;;;;;5034715;28;20772;-70
2020/12/01 06:36:35;;;;;;;4.10;1.87;;;20.90;52.60;;;;;;5034516;28;20475;-69
2020/12/01 06:39:19;;;;;;;2.30;2.10;;;20.90;52.60;;;;;;5035000;28;20448;-70
2020/12/01 06:41:54;;;;;;;2.37;2.00;;;20.90;52.70;;;;;;5034421;28;20409;-69
2020/12/01 06:44:25;;;;;;;2.50;2.07;;;21.00;52.60;;;;;;5034366;28;20386;-69
2020/12/01 06:46:54;;;;;;;2.20;1.90;;;21.00;52.50;;;;;;5034697;28;20406;-69
2020/12/01 06:49:32;;;;;;;2.20;1.80;;;21.10;52.50;;;;;;5034568;28;20504;-70
2020/12/01 06:52:10;;;;;;;2.67;2.10;;;21.10;52.50;;;;;;5034588;28;20547;-70
2020/12/01 06:54:56;;;;;;;4.13;2.10;;;21.20;52.50;;;;;;5034456;28;20466;-70
2020/12/01 06:57:28;;;;;;;2.57;2.10;;;21.20;52.50;;;;;;5034350;28;20402;-69
2020/12/01 06:59:54;;;;;;;2.07;1.80;;;21.30;52.50;;;;;;5033489;28;20398;-69
2020/12/01 07:02:31;;;;;;;2.53;2.17;;;21.30;52.50;;;;;;5034381;28;20418;-68
2020/12/01 07:05:06;;;;;;;1.97;1.77;;;21.30;52.40;;;;;;5034305;28;20437;-70
2020/12/01 07:07:35;;;;;;;3.23;2.20;;;21.30;52.40;;;;;;5033977;28;20448;-69
2020/12/01 07:10:12;;;;;;;2.60;1.90;;;21.40;52.40;;;;;;5034239;28;20437;-70
2020/12/01 07:12:54;;;;;;;2.17;1.77;;;21.40;52.40;;;;;;5034051;28;20398;-70
2020/12/01 07:15:41;;;;;;;2.83;2.13;;;21.40;52.40;;;;;;5033747;28;20532;-69
2020/12/01 07:18:30;;;;;;;2.43;2.17;;;21.50;52.40;;;;;;5033946;28;20419;-69
2020/12/01 07:21:37;;;;;;;2.37;1.87;;;21.50;52.40;;;;;;5034033;28;20528;-69
2020/12/01 07:24:19;;;;;;;3.03;2.23;;;21.50;52.40;;;;;;5023681;28;20465;-68
2020/12/01 07:27:01;;;;;;;2.57;2.07;;;21.50;52.40;;;;;;5033848;28;20398;-69
2020/12/01 07:29:45;;;;;;;2.00;1.80;;;21.50;52.40;;;;;;5033703;28;20438;-68
2020/12/01 07:32:42;;;;;;;3.27;2.47;;;21.50;52.40;;;;;;5033646;28;20406;-69
2020/12/01 07:35:10;;;;;;;1.93;1.73;;;21.60;52.50;;;;;;5035327;28;20984;-68
2020/12/01 07:37:52;;;;;;;2.37;1.73;;;21.60;52.50;;;;;;5014629;28;20495;-69
2020/12/01 07:40:30;;;;;;;2.30;1.90;;;21.60;52.40;;;;;;5033508;28;20881;-68
2020/12/01 07:43:04;;;;;;;3.67;2.37;;;21.60;52.40;;;;;;5033193;28;20920;-68
2020/12/01 07:45:31;;;;;;;2.33;2.13;;;21.60;52.40;;;;;;5033525;28;20800;-68
2020/12/01 07:47:59;;;;;;;3.77;2.23;;;21.60;52.30;;;;;;5033484;28;20421;-69
2020/12/01 07:50:26;;;;;;;2.93;2.10;;;21.60;52.30;;;;;;5033310;28;20826;-69
2020/12/01 07:53:03;;;;;;;2.23;1.60;;;21.60;52.40;;;;;;5033513;28;20422;-68
2020/12/01 07:55:47;;;;;;;3.00;1.97;;;21.60;52.30;;;;;;5032770;28;20987;-69
2020/12/01 07:58:16;;;;;;;2.30;2.10;;;21.70;52.40;;;;;;5033153;28;20487;-69
2020/12/01 08:00:47;;;;;;;1.93;1.60;;;21.60;52.30;;;;;;5033135;28;20403;-69
2020/12/01 08:03:15;;;;;;;1.73;1.40;;;21.70;52.40;;;;;;5033493;28;20760;-67
2020/12/01 08:05:40;;;;;;;2.27;1.80;;;21.60;52.30;;;;;;5033010;28;20580;-69
2020/12/01 08:08:06;;;;;;;2.47;1.90;;;21.70;52.40;;;;;;5033275;28;20493;-69
2020/12/01 08:10:33;;;;;;;2.83;1.80;;;21.70;52.40;;;;;;5033909;28;20179;-69
2020/12/01 08:13:02;;;;;;;2.53;2.00;;;21.70;52.40;;;;;;5033232;28;20187;-69
2020/12/01 08:15:28;;;;;;;2.40;1.90;;;21.70;52.40;;;;;;5032517;28;20860;-69
2020/12/01 08:17:55;;;;;;;2.03;1.63;;;21.70;52.40;;;;;;5033004;28;20418;-70
2020/12/01 08:20:24;;;;;;;5.17;2.10;;;21.70;52.40;;;;;;5033239;28;20410;-68
2020/12/01 08:23:05;;;;;;;2.20;2.00;;;21.70;52.40;;;;;;5033613;28;20505;-68
2020/12/01 08:25:31;;;;;;;1.90;1.60;;;21.70;52.40;;;;;;5032891;28;20434;-68
2020/12/01 08:28:13;;;;;;;2.40;1.80;;;21.70;52.40;;;;;;5032936;28;20421;-68
2020/12/01 08:30:47;;;;;;;1.70;1.60;;;21.70;52.40;;;;;;5033022;28;20494;-68
2020/12/01 08:33:26;;;;;;;3.33;2.00;;;21.70;52.30;;;;;;5033157;28;20406;-66
2020/12/01 08:36:05;;;;;;;2.07;1.80;;;21.70;52.40;;;;;;5032766;28;20476;-68
2020/12/01 08:39:05;;;;;;;3.60;2.50;;;21.70;52.30;;;;;;5013675;28;20418;-68
2020/12/01 08:41:42;;;;;;;1.70;1.60;;;21.80;52.40;;;;;;5033037;28;20391;-66
2020/12/01 08:44:23;;;;;;;2.30;1.80;;;21.70;52.30;;;;;;5032859;28;20741;-66
2020/12/01 08:46:49;;;;;;;2.80;2.00;;;21.80;52.40;;;;;;5032999;28;20505;-68
2020/12/01 08:49:41;;;;;;;2.40;1.90;;;21.80;52.40;;;;;;5033162;28;20406;-68
2020/12/01 08:52:21;;;;;;;2.30;2.10;;;21.80;52.30;;;;;;5032903;28;20949;-68
2020/12/01 08:54:54;;;;;;;3.13;2.40;;;21.80;52.30;;;;;;5032791;28;20492;-67
2020/12/01 08:57:47;;;;;;;2.60;2.23;;;21.80;52.30;;;;;;5032797;28;20398;-69
2020/12/01 09:00:17;;;;;;;3.73;2.70;;;21.80;52.30;;;;;;5029412;28;20426;-68
2020/12/01 09:02:48;;;;;;;3.43;2.73;;;21.80;52.40;;;;;;5032907;28;20390;-68
2020/12/01 09:05:27;;;;;;;7.17;3.40;;;21.80;52.30;;;;;;5032475;28;20488;-68
2020/12/01 09:14:14;;;;;;;5.03;3.50;;;21.90;52.40;;;;;;5032393;28;20387;-69
2020/12/01 09:16:54;;;;;;;4.20;3.50;;;21.80;52.40;;;;;;5032409;28;20421;-69
2020/12/01 09:19:56;;;;;;;7.30;4.67;;;21.80;52.50;;;;;;5032454;28;20858;-69
2020/12/01 09:22:33;;;;;;;6.27;5.60;;;21.80;52.40;;;;;;5034251;28;20490;-70
2020/12/01 09:25:24;;;;;;;6.50;5.07;;;21.80;52.50;;;;;;5036325;28;20796;-67
2020/12/01 09:27:51;;;;;;;7.67;6.03;;;21.80;52.50;;;;;;5036486;28;20399;-69
2020/12/01 09:30:28;;;;;;;10.50;6.93;;;21.80;52.50;;;;;;5036382;28;20923;-68
2020/12/01 09:32:54;;;;;;;6.50;5.73;;;21.80;52.50;;;;;;5036049;28;20832;-69
2020/12/01 09:35:20;;;;;;;9.17;6.67;;;21.80;52.50;;;;;;5035558;28;20478;-69
2020/12/01 09:37:46;;;;;;;8.53;7.30;;;21.80;52.50;;;;;;5035972;28;20395;-69
2020/12/01 09:40:11;;;;;;;7.53;6.33;;;21.80;52.50;;;;;;5035915;28;20179;-68
2020/12/01 09:42:38;;;;;;;9.23;7.63;;;21.80;52.50;;;;;;5035912;28;20585;-69
2020/12/01 09:45:16;;;;;;;10.60;7.50;;;21.80;52.50;;;;;;5035965;28;20198;-69
2020/12/01 09:47:57;;;;;;;9.23;7.37;;;21.80;52.50;;;;;;5035808;28;20474;-68
2020/12/01 09:50:28;;;;;;;9.67;6.77;;;21.80;52.50;;;;;;5035435;28;20402;-69
2020/12/01 10:08:42;;;;;;;8.23;6.40;;;21.80;52.40;;;;;;5035718;28;20160;-68
2020/12/01 10:13:45;;;;;;;12.13;6.67;;;21.90;53.10;;;;;;5037033;28;20407;-69
2020/12/01 10:37:11;;;;;;;9.17;6.60;;;21.80;52.60;;;;;;5034997;28;20433;-70
2020/12/01 10:39:37;;;;;;;10.17;6.33;;;21.70;53.10;;;;;;5037120;28;20653;-68
2020/12/01 10:42:11;;;;;;;14.30;8.27;;;21.80;52.60;;;;;;5035976;28;20267;-68
2020/12/01 10:44:37;;;;;;;13.27;7.23;;;21.80;52.60;;;;;;5034759;28;20213;-68
2020/12/01 10:47:03;;;;;;;9.77;7.67;;;21.80;52.60;;;;;;5034414;28;20501;-67
2020/12/01 10:49:29;;;;;;;9.73;8.37;;;21.80;52.60;;;;;;5034637;28;20399;-68
2020/12/01 10:51:54;;;;;;;9.10;6.43;;;21.80;52.60;;;;;;5034930;28;20437;-68
2020/12/01 10:54:20;;;;;;;12.40;6.97;;;21.80;52.50;;;;;;5034437;28;20234;-68
2020/12/01 10:56:49;;;;;;;11.17;6.90;;;21.80;52.50;;;;;;5034240;28;20172;-67
2020/12/01 10:59:16;;;;;;;10.30;6.47;;;21.80;52.50;;;;;;5034450;28;20202;-68
2020/12/01 11:01:42;;;;;;;11.67;6.60;;;21.80;52.50;;;;;;5034223;28;20869;-68
2020/12/01 11:04:09;;;;;;;8.33;6.20;;;21.90;52.50;;;;;;5034329;28;20449;-68
2020/12/01 11:06:36;;;;;;;10.20;6.83;;;21.80;52.50;;;;;;5034089;28;20480;-68
2020/12/01 11:09:05;;;;;;;6.93;5.60;;;21.90;52.50;;;;;;5035327;28;20931;-68
2020/12/01 11:11:31;;;;;;;7.30;5.80;;;21.90;52.50;;;;;;5034163;28;20418;-67
2020/12/01 11:13:57;;;;;;;5.77;4.80;;;21.90;52.50;;;;;;5034722;28;20564;-68
2020/12/01 11:16:22;;;;;;;11.60;6.47;;;21.90;52.50;;;;;;5033852;28;20192;-68
2020/12/01 11:18:48;;;;;;;9.27;6.27;;;21.90;52.50;;;;;;5034003;28;20178;-68
2020/12/01 11:21:13;;;;;;;8.47;5.53;;;21.90;52.50;;;;;;5016095;28;20649;-68
2020/12/01 11:23:39;;;;;;;8.43;5.70;;;21.90;52.50;;;;;;5033863;28;20195;-69
2020/12/01 11:26:05;;;;;;;7.60;5.80;;;21.90;52.50;;;;;;5015990;28;20194;-68
2020/12/01 11:28:30;;;;;;;6.30;5.70;;;21.90;52.50;;;;;;5033745;28;20585;-68
2020/12/01 11:30:56;;;;;;;7.70;5.30;;;21.90;52.50;;;;;;5033557;28;20183;-69
2020/12/01 11:33:22;;;;;;;7.80;5.97;;;21.90;52.50;;;;;;5034027;28;20175;-69
2020/12/01 11:35:48;;;;;;;7.30;5.97;;;21.90;52.50;;;;;;5033294;28;20462;-69
2020/12/01 11:38:14;;;;;;;8.27;5.80;;;22.00;52.50;;;;;;5033792;28;20564;-69
2020/12/01 11:40:40;;;;;;;6.60;5.73;;;22.00;52.50;;;;;;5033412;28;20182;-68
2020/12/01 11:43:05;;;;;;;6.70;5.73;;;22.00;52.50;;;;;;5033432;28;20411;-69
2020/12/01 11:45:31;;;;;;;6.93;5.87;;;21.90;52.40;;;;;;5032928;28;20184;-69
2020/12/01 11:47:56;;;;;;;6.27;5.50;;;22.00;52.50;;;;;;5033673;28;20175;-69
2020/12/01 11:50:22;;;;;;;7.20;5.57;;;22.00;52.50;;;;;;5033569;28;20637;-69
2020/12/01 11:52:48;;;;;;;7.53;5.20;;;22.00;52.50;;;;;;5033282;28;20179;-67
2020/12/01 11:55:13;;;;;;;6.40;5.20;;;22.00;52.50;;;;;;5033141;28;20611;-69
2020/12/01 11:57:39;;;;;;;7.43;5.80;;;22.00;52.50;;;;;;5033268;28;20178;-69
2020/12/01 12:00:07;;;;;;;5.90;4.57;;;22.00;52.50;;;;;;5033468;28;20170;-68
2020/12/01 12:02:32;;;;;;;6.70;5.10;;;22.00;53.00;;;;;;5033103;28;20214;-67
2020/12/01 12:04:58;;;;;;;5.87;5.17;;;22.00;52.50;;;;;;5033215;28;20465;-69
2020/12/01 12:07:23;;;;;;;6.70;5.57;;;22.00;52.50;;;;;;5033054;28;20172;-68
2020/12/01 12:09:49;;;;;;;6.67;4.90;;;22.00;52.50;;;;;;5033314;28;20205;-68
2020/12/01 12:12:15;;;;;;;5.20;4.67;;;22.00;52.50;;;;;;5015240;28;20668;-69
2020/12/01 12:14:41;;;;;;;6.83;5.70;;;22.00;52.50;;;;;;5032857;28;20206;-68
2020/12/01 12:17:07;;;;;;;6.10;5.20;;;22.00;52.50;;;;;;5033522;28;20544;-68
2020/12/01 12:19:33;;;;;;;5.70;4.80;;;22.00;52.50;;;;;;5033226;28;20533;-69
2020/12/01 12:21:58;;;;;;;7.30;5.40;;;22.00;52.50;;;;;;5032987;28;20175;-68
2020/12/01 12:24:24;;;;;;;8.30;5.00;;;22.00;52.50;;;;;;5032972;28;20192;-68
2020/12/01 12:26:49;;;;;;;7.40;4.90;;;22.00;52.50;;;;;;5033295;28;20270;-69
2020/12/01 12:29:15;;;;;;;7.63;4.77;;;22.00;52.50;;;;;;5032948;28;20179;-66
2020/12/01 12:31:41;;;;;;;5.90;5.17;;;22.00;52.50;;;;;;5032932;28;20642;-68
2020/12/01 12:34:06;;;;;;;5.27;4.50;;;22.00;53.10;;;;;;5032639;28;20188;-68
2020/12/01 12:36:32;;;;;;;6.40;5.00;;;22.00;52.50;;;;;;5032782;28;20191;-69
2020/12/01 12:38:58;;;;;;;5.50;5.00;;;22.00;52.50;;;;;;5032847;28;20685;-68
2020/12/01 12:41:25;;;;;;;9.80;5.00;;;22.00;52.50;;;;;;5015127;28;20665;-68
2020/12/01 12:43:50;;;;;;;6.40;4.87;;;22.00;52.50;;;;;;5015080;28;20176;-68
2020/12/01 12:46:16;;;;;;;5.60;4.90;;;22.00;52.50;;;;;;5032715;28;20434;-68
2020/12/01 12:48:42;;;;;;;7.93;5.00;;;22.00;52.50;;;;;;5032736;28;20582;-68
2020/12/01 12:51:07;;;;;;;5.80;4.47;;;22.00;52.50;;;;;;5032717;28;20438;-68
2020/12/01 12:53:33;;;;;;;5.00;4.03;;;22.00;52.50;;;;;;5032662;28;20188;-69
2020/12/01 12:56:00;;;;;;;5.30;4.50;;;22.00;52.50;;;;;;5032862;28;20670;-69
2020/12/01 12:58:25;;;;;;;6.33;5.37;;;21.90;52.50;;;;;;5036341;28;20258;-68
2020/12/01 13:00:51;;;;;;;8.10;5.90;;;21.90;52.50;;;;;;5036607;28;20449;-69
2020/12/01 13:03:17;;;;;;;11.00;7.67;;;21.90;52.40;;;;;;5036383;28;20196;-68
2020/12/01 13:05:42;;;;;;;7.30;6.60;;;21.90;52.40;;;;;;5036252;28;20267;-68
2020/12/01 13:08:08;;;;;;;7.30;5.80;;;21.90;52.40;;;;;;5036966;28;20184;-68
2020/12/01 13:10:34;;;;;;;6.43;5.70;;;21.90;52.40;;;;;;5036256;28;20183;-67
2020/12/01 13:13:00;;;;;;;5.53;5.03;;;21.90;52.60;;;;;;5018458;28;20175;-68
2020/12/01 13:15:26;;;;;;;6.00;4.80;;;21.80;52.40;;;;;;5019028;28;20583;-68
2020/12/01 13:17:52;;;;;;;9.03;5.60;;;21.80;52.50;;;;;;5036347;28;21013;-68
2020/12/01 13:20:23;;;;;;;5.67;4.80;;;21.80;52.50;;;;;;5036288;28;20414;-67
2020/12/01 13:22:48;;;;;;;5.27;4.60;;;21.80;52.50;;;;;;5036010;28;20286;-70
2020/12/01 13:25:15;;;;;;;6.47;4.80;;;21.80;52.50;;;;;;5036156;28;21008;-70
2020/12/01 13:27:40;;;;;;;5.50;4.60;;;21.80;52.50;;;;;;5036197;28;20176;-70
2020/12/01 13:30:08;;;;;;;5.13;4.63;;;21.70;52.60;;;;;;5035857;28;20428;-70
2020/12/01 13:32:33;;;;;;;5.33;4.53;;;21.70;52.50;;;;;;5035825;28;20182;-70
2020/12/01 13:37:28;;;;;;;6.87;5.07;;;21.70;52.50;;;;;;5014932;28;20212;-67
2020/12/01 13:39:54;;;;;;;5.53;4.67;;;21.70;52.60;;;;;;5015889;28;20407;-66
2020/12/01 13:42:20;;;;;;;7.03;4.80;;;21.70;52.60;;;;;;5015857;28;20172;-67
2020/12/01 13:44:45;;;;;;;6.43;5.60;;;21.60;52.50;;;;;;5015877;28;20172;-67
2020/12/01 13:47:11;;;;;;;4.93;4.40;;;21.60;52.50;;;;;;5034565;28;20214;-67
2020/12/01 13:49:36;;;;;;;6.83;5.27;;;21.60;52.60;;;;;;5035526;28;20175;-68
2020/12/01 13:52:02;;;;;;;8.17;5.00;;;21.60;52.60;;;;;;5035572;28;20168;-68
2020/12/01 13:54:28;;;;;;;5.13;4.63;;;21.60;52.60;;;;;;5034125;28;20206;-67